sensor_id;sensor_type;location;lat;lon;timestamp;P1;durP1;ratioP1;P2;durP2;ratioP2
13611;SDS011;6877;51.436;6.774;2023-07-20T00:00:15;11.05;;;4.55;;
13611;SDS011;6877;51.436;6.774;2023-07-20T00:02:41;7.93;;;5.22;;
13611;SDS011;6877;51.436;6.774;2023-07-20T00:05:13;6.28;;;4.05;;
13611;SDS011;6877;51.436;6.774;2023-07-20T00:07:44;8.93;;;5.63;;
13611;SDS011;6877;51.436;6.774;2023-07-20T00:10:16;11.50;;;4.57;;
13611;SDS011;6877;51.436;6.774;2023-07-20T00:12:42;7.65;;;4.68;;
13611;SDS011;6877;51.436;6.774;2023-07-20T00:15:13;8.15;;;4.13;;
13611;SDS011;6877;51.436;6.774;2023-07-20T00:17:45;6.30;;;4.70;;
13611;SDS011;6877;51.436;6.774;2023-07-20T00:20:16;8.43;;;4.32;;
13611;SDS011;6877;51.436;6.774;2023-07-20T00:22:43;5.53;;;4.43;;
13611;SDS011;6877;51.436;6.774;2023-07-20T00:25:09;10.60;;;4.03;;
13611;SDS011;6877;51.436;6.774;2023-07-20T00:27:37;5.32;;;3.70;;
13611;SDS011;6877;51.436;6.774;2023-07-20T00:30:09;6.85;;;4.32;;
13611;SDS011;6877;51.436;6.774;2023-07-20T00:32:36;9.15;;;4.47;;
13611;SDS011;6877;51.436;6.774;2023-07-20T00:35:04;7.32;;;4.85;;
13611;SDS011;6877;51.436;6.774;2023-07-20T00:37:31;8.45;;;5.25;;
13611;SDS011;6877;51.436;6.774;2023-07-20T00:40:02;11.32;;;5.65;;
13611;SDS011;6877;51.436;6.774;2023-07-20T00:42:30;5.63;;;4.20;;
13611;SDS011;6877;51.436;6.774;2023-07-20T00:44:57;8.30;;;4.38;;
13611;SDS011;6877;51.436;6.774;2023-07-20T00:47:24;7.30;;;3.88;;
13611;SDS011;6877;51.436;6.774;2023-07-20T00:49:55;5.90;;;4.00;;
13611;SDS011;6877;51.436;6.774;2023-07-20T00:52:23;7.78;;;4.60;;
13611;SDS011;6877;51.436;6.774;2023-07-20T00:54:56;7.93;;;5.40;;
13611;SDS011;6877;51.436;6.774;2023-07-20T00:57:23;13.90;;;4.78;;
13611;SDS011;6877;51.436;6.774;2023-07-20T00:59:51;8.15;;;4.43;;
13611;SDS011;6877;51.436;6.774;2023-07-20T01:02:18;6.38;;;4.15;;
13611;SDS011;6877;51.436;6.774;2023-07-20T01:04:44;8.10;;;4.20;;
13611;SDS011;6877;51.436;6.774;2023-07-20T01:12:47;5.75;;;4.32;;
13611;SDS011;6877;51.436;6.774;2023-07-20T01:15:22;11.20;;;4.82;;
13611;SDS011;6877;51.436;6.774;2023-07-20T01:17:48;7.20;;;3.97;;
13611;SDS011;6877;51.436;6.774;2023-07-20T01:20:20;10.15;;;6.03;;
13611;SDS011;6877;51.436;6.774;2023-07-20T01:31:32;6.53;;;4.53;;
13611;SDS011;6877;51.436;6.774;2023-07-20T01:34:01;9.55;;;4.78;;
13611;SDS011;6877;51.436;6.774;2023-07-20T01:36:34;10.55;;;5.70;;
13611;SDS011;6877;51.436;6.774;2023-07-20T01:39:02;7.68;;;4.32;;
13611;SDS011;6877;51.436;6.774;2023-07-20T01:41:30;12.02;;;5.18;;
13611;SDS011;6877;51.436;6.774;2023-07-20T01:43:57;10.80;;;5.38;;
13611;SDS011;6877;51.436;6.774;2023-07-20T01:46:25;7.22;;;5.28;;
13611;SDS011;6877;51.436;6.774;2023-07-20T01:48:52;14.85;;;6.03;;
13611;SDS011;6877;51.436;6.774;2023-07-20T01:51:19;12.70;;;6.25;;
13611;SDS011;6877;51.436;6.774;2023-07-20T01:53:45;11.32;;;5.70;;
13611;SDS011;6877;51.436;6.774;2023-07-20T01:56:12;9.52;;;5.75;;
13611;SDS011;6877;51.436;6.774;2023-07-20T01:58:43;12.30;;;6.32;;
13611;SDS011;6877;51.436;6.774;2023-07-20T02:01:10;10.27;;;5.72;;
13611;SDS011;6877;51.436;6.774;2023-07-20T02:03:36;11.65;;;5.72;;
13611;SDS011;6877;51.436;6.774;2023-07-20T02:06:08;14.55;;;6.78;;
13611;SDS011;6877;51.436;6.774;2023-07-20T02:08:39;11.85;;;6.60;;
13611;SDS011;6877;51.436;6.774;2023-07-20T02:11:06;11.30;;;5.97;;
13611;SDS011;6877;51.436;6.774;2023-07-20T02:13:37;9.88;;;5.50;;
13611;SDS011;6877;51.436;6.774;2023-07-20T02:16:04;10.80;;;5.40;;
13611;SDS011;6877;51.436;6.774;2023-07-20T02:18:31;15.23;;;6.43;;
13611;SDS011;6877;51.436;6.774;2023-07-20T02:20:57;14.25;;;7.25;;
13611;SDS011;6877;51.436;6.774;2023-07-20T02:23:32;16.63;;;7.82;;
13611;SDS011;6877;51.436;6.774;2023-07-20T02:26:04;10.82;;;6.28;;
13611;SDS011;6877;51.436;6.774;2023-07-20T02:28:35;14.98;;;7.28;;
13611;SDS011;6877;51.436;6.774;2023-07-20T02:31:02;15.18;;;8.15;;
13611;SDS011;6877;51.436;6.774;2023-07-20T02:33:28;13.27;;;7.90;;
13611;SDS011;6877;51.436;6.774;2023-07-20T02:35:55;17.45;;;8.73;;
13611;SDS011;6877;51.436;6.774;2023-07-20T02:38:21;11.57;;;8.02;;
13611;SDS011;6877;51.436;6.774;2023-07-20T02:40:52;17.35;;;8.38;;
13611;SDS011;6877;51.436;6.774;2023-07-20T02:43:19;15.70;;;8.80;;
13611;SDS011;6877;51.436;6.774;2023-07-20T02:45:45;18.05;;;9.23;;
13611;SDS011;6877;51.436;6.774;2023-07-20T02:48:18;17.30;;;9.32;;
13611;SDS011;6877;51.436;6.774;2023-07-20T02:50:58;15.73;;;8.13;;
13611;SDS011;6877;51.436;6.774;2023-07-20T02:53:25;11.73;;;7.32;;
13611;SDS011;6877;51.436;6.774;2023-07-20T02:55:57;14.13;;;9.18;;
13611;SDS011;6877;51.436;6.774;2023-07-20T02:58:28;23.42;;;11.35;;
13611;SDS011;6877;51.436;6.774;2023-07-20T03:01:00;23.75;;;11.25;;
13611;SDS011;6877;51.436;6.774;2023-07-20T03:03:26;16.75;;;8.98;;
13611;SDS011;6877;51.436;6.774;2023-07-20T03:05:52;16.92;;;9.07;;
13611;SDS011;6877;51.436;6.774;2023-07-20T03:08:25;18.50;;;9.00;;
13611;SDS011;6877;51.436;6.774;2023-07-20T03:10:56;15.55;;;9.23;;
13611;SDS011;6877;51.436;6.774;2023-07-20T03:13:28;16.05;;;8.60;;
13611;SDS011;6877;51.436;6.774;2023-07-20T03:15:59;16.23;;;8.82;;
13611;SDS011;6877;51.436;6.774;2023-07-20T03:18:26;14.45;;;8.82;;
13611;SDS011;6877;51.436;6.774;2023-07-20T03:20:52;13.63;;;8.30;;
13611;SDS011;6877;51.436;6.774;2023-07-20T03:23:19;15.90;;;10.23;;
13611;SDS011;6877;51.436;6.774;2023-07-20T03:25:45;18.15;;;9.35;;
13611;SDS011;6877;51.436;6.774;2023-07-20T03:28:17;16.05;;;9.68;;
13611;SDS011;6877;51.436;6.774;2023-07-20T03:30:43;17.73;;;8.25;;
13611;SDS011;6877;51.436;6.774;2023-07-20T03:33:10;14.57;;;9.07;;
13611;SDS011;6877;51.436;6.774;2023-07-20T03:35:42;20.83;;;9.57;;
13611;SDS011;6877;51.436;6.774;2023-07-20T03:38:13;16.38;;;10.23;;
13611;SDS011;6877;51.436;6.774;2023-07-20T03:41:06;16.13;;;9.25;;
13611;SDS011;6877;51.436;6.774;2023-07-20T03:43:31;24.02;;;13.23;;
13611;SDS011;6877;51.436;6.774;2023-07-20T03:45:58;23.40;;;14.57;;
13611;SDS011;6877;51.436;6.774;2023-07-20T03:48:25;24.83;;;12.65;;
13611;SDS011;6877;51.436;6.774;2023-07-20T03:50:52;21.20;;;13.07;;
13611;SDS011;6877;51.436;6.774;2023-07-20T03:53:19;30.08;;;13.55;;
13611;SDS011;6877;51.436;6.774;2023-07-20T03:55:46;20.80;;;12.38;;
13611;SDS011;6877;51.436;6.774;2023-07-20T03:58:14;23.17;;;12.63;;
13611;SDS011;6877;51.436;6.774;2023-07-20T04:00:48;23.00;;;13.10;;
13611;SDS011;6877;51.436;6.774;2023-07-20T04:03:19;20.75;;;11.38;;
13611;SDS011;6877;51.436;6.774;2023-07-20T04:05:51;23.65;;;13.23;;
13611;SDS011;6877;51.436;6.774;2023-07-20T04:08:24;22.45;;;13.60;;
13611;SDS011;6877;51.436;6.774;2023-07-20T04:10:58;34.40;;;16.23;;
13611;SDS011;6877;51.436;6.774;2023-07-20T04:13:27;34.40;;;16.42;;
13611;SDS011;6877;51.436;6.774;2023-07-20T04:15:54;35.50;;;17.80;;
13611;SDS011;6877;51.436;6.774;2023-07-20T04:18:21;27.17;;;17.45;;
13611;SDS011;6877;51.436;6.774;2023-07-20T04:20:47;32.20;;;17.30;;
13611;SDS011;6877;51.436;6.774;2023-07-20T04:23:14;31.13;;;15.80;;
13611;SDS011;6877;51.436;6.774;2023-07-20T04:25:41;24.92;;;16.30;;
13611;SDS011;6877;51.436;6.774;2023-07-20T04:28:07;32.13;;;17.52;;
13611;SDS011;6877;51.436;6.774;2023-07-20T04:30:38;27.00;;;15.52;;
13611;SDS011;6877;51.436;6.774;2023-07-20T04:33:06;30.13;;;18.10;;
13611;SDS011;6877;51.436;6.774;2023-07-20T04:38:31;31.63;;;17.13;;
13611;SDS011;6877;51.436;6.774;2023-07-20T04:40:57;27.88;;;15.95;;
13611;SDS011;6877;51.436;6.774;2023-07-20T04:43:24;24.10;;;14.95;;
13611;SDS011;6877;51.436;6.774;2023-07-20T04:45:55;27.13;;;17.00;;
13611;SDS011;6877;51.436;6.774;2023-07-20T04:48:21;27.83;;;16.05;;
13611;SDS011;6877;51.436;6.774;2023-07-20T04:50:53;25.65;;;15.35;;
13611;SDS011;6877;51.436;6.774;2023-07-20T04:53:24;27.20;;;15.60;;
13611;SDS011;6877;51.436;6.774;2023-07-20T04:55:51;24.52;;;15.15;;
13611;SDS011;6877;51.436;6.774;2023-07-20T04:58:18;23.75;;;13.55;;
13611;SDS011;6877;51.436;6.774;2023-07-20T05:00:45;21.55;;;13.27;;
13611;SDS011;6877;51.436;6.774;2023-07-20T05:03:12;28.90;;;15.48;;
13611;SDS011;6877;51.436;6.774;2023-07-20T05:05:38;20.67;;;13.10;;
13611;SDS011;6877;51.436;6.774;2023-07-20T05:08:05;18.10;;;11.85;;
13611;SDS011;6877;51.436;6.774;2023-07-20T05:10:31;20.67;;;12.25;;
13611;SDS011;6877;51.436;6.774;2023-07-20T05:12:58;20.08;;;13.93;;
13611;SDS011;6877;51.436;6.774;2023-07-20T05:15:25;22.90;;;13.20;;
13611;SDS011;6877;51.436;6.774;2023-07-20T05:17:52;22.08;;;13.15;;
13611;SDS011;6877;51.436;6.774;2023-07-20T05:20:23;41.97;;;13.90;;
13611;SDS011;6877;51.436;6.774;2023-07-20T05:22:54;18.60;;;13.02;;
13611;SDS011;6877;51.436;6.774;2023-07-20T05:25:21;20.50;;;13.13;;
13611;SDS011;6877;51.436;6.774;2023-07-20T05:27:48;18.50;;;11.77;;
13611;SDS011;6877;51.436;6.774;2023-07-20T05:30:16;25.08;;;13.10;;
13611;SDS011;6877;51.436;6.774;2023-07-20T05:32:43;23.30;;;12.60;;
13611;SDS011;6877;51.436;6.774;2023-07-20T05:35:11;12.10;;;8.20;;
13611;SDS011;6877;51.436;6.774;2023-07-20T05:37:38;11.88;;;8.18;;
13611;SDS011;6877;51.436;6.774;2023-07-20T05:40:09;14.25;;;7.20;;
13611;SDS011;6877;51.436;6.774;2023-07-20T05:42:38;11.38;;;7.25;;
13611;SDS011;6877;51.436;6.774;2023-07-20T05:45:10;13.27;;;7.07;;
13611;SDS011;6877;51.436;6.774;2023-07-20T05:47:41;15.07;;;8.18;;
13611;SDS011;6877;51.436;6.774;2023-07-20T05:50:09;8.98;;;5.93;;
13611;SDS011;6877;51.436;6.774;2023-07-20T05:52:36;9.95;;;6.80;;
13611;SDS011;6877;51.436;6.774;2023-07-20T05:55:09;10.30;;;7.10;;
13611;SDS011;6877;51.436;6.774;2023-07-20T05:57:36;14.30;;;7.15;;
13611;SDS011;6877;51.436;6.774;2023-07-20T06:00:06;13.20;;;7.55;;
13611;SDS011;6877;51.436;6.774;2023-07-20T06:02:33;12.45;;;7.30;;
13611;SDS011;6877;51.436;6.774;2023-07-20T06:04:59;14.30;;;7.75;;
13611;SDS011;6877;51.436;6.774;2023-07-20T06:07:26;12.38;;;7.30;;
13611;SDS011;6877;51.436;6.774;2023-07-20T06:09:57;10.90;;;6.00;;
13611;SDS011;6877;51.436;6.774;2023-07-20T06:12:30;17.02;;;8.50;;
13611;SDS011;6877;51.436;6.774;2023-07-20T06:14:56;12.90;;;7.60;;
13611;SDS011;6877;51.436;6.774;2023-07-20T06:17:28;13.40;;;7.80;;
13611;SDS011;6877;51.436;6.774;2023-07-20T06:19:54;15.85;;;9.40;;
13611;SDS011;6877;51.436;6.774;2023-07-20T06:22:21;11.18;;;8.63;;
13611;SDS011;6877;51.436;6.774;2023-07-20T06:24:52;12.80;;;8.93;;
13611;SDS011;6877;51.436;6.774;2023-07-20T06:27:18;10.40;;;7.60;;
13611;SDS011;6877;51.436;6.774;2023-07-20T06:29:45;15.00;;;9.10;;
13611;SDS011;6877;51.436;6.774;2023-07-20T06:32:16;10.07;;;7.43;;
13611;SDS011;6877;51.436;6.774;2023-07-20T06:34:43;15.50;;;7.07;;
13611;SDS011;6877;51.436;6.774;2023-07-20T06:37:09;11.68;;;7.78;;
13611;SDS011;6877;51.436;6.774;2023-07-20T06:39:36;12.68;;;7.40;;
13611;SDS011;6877;51.436;6.774;2023-07-20T06:42:02;12.75;;;6.63;;
13611;SDS011;6877;51.436;6.774;2023-07-20T06:44:34;12.77;;;6.97;;
13611;SDS011;6877;51.436;6.774;2023-07-20T06:47:06;20.63;;;11.77;;
13611;SDS011;6877;51.436;6.774;2023-07-20T06:49:37;16.80;;;9.73;;
13611;SDS011;6877;51.436;6.774;2023-07-20T06:52:04;20.63;;;12.85;;
13611;SDS011;6877;51.436;6.774;2023-07-20T06:54:36;24.52;;;14.95;;
13611;SDS011;6877;51.436;6.774;2023-07-20T06:57:02;21.08;;;13.38;;
13611;SDS011;6877;51.436;6.774;2023-07-20T06:59:29;16.48;;;8.55;;
13611;SDS011;6877;51.436;6.774;2023-07-20T07:01:55;16.48;;;8.40;;
13611;SDS011;6877;51.436;6.774;2023-07-20T07:04:27;14.52;;;8.75;;
13611;SDS011;6877;51.436;6.774;2023-07-20T07:06:54;14.98;;;8.15;;
13611;SDS011;6877;51.436;6.774;2023-07-20T07:09:20;14.60;;;9.05;;
13611;SDS011;6877;51.436;6.774;2023-07-20T07:11:52;23.52;;;13.73;;
13611;SDS011;6877;51.436;6.774;2023-07-20T07:14:19;18.23;;;11.20;;
13611;SDS011;6877;51.436;6.774;2023-07-20T07:16:51;23.23;;;13.35;;
13611;SDS011;6877;51.436;6.774;2023-07-20T07:19:18;19.20;;;10.52;;
13611;SDS011;6877;51.436;6.774;2023-07-20T07:21:44;14.10;;;8.20;;
13611;SDS011;6877;51.436;6.774;2023-07-20T07:24:11;11.65;;;7.75;;
13611;SDS011;6877;51.436;6.774;2023-07-20T07:26:37;16.65;;;8.15;;
13611;SDS011;6877;51.436;6.774;2023-07-20T07:29:04;14.10;;;6.75;;
13611;SDS011;6877;51.436;6.774;2023-07-20T07:31:33;8.40;;;5.35;;
13611;SDS011;6877;51.436;6.774;2023-07-20T07:34:06;13.80;;;6.38;;
13611;SDS011;6877;51.436;6.774;2023-07-20T07:36:33;10.38;;;6.50;;
13611;SDS011;6877;51.436;6.774;2023-07-20T07:39:01;9.75;;;4.93;;
13611;SDS011;6877;51.436;6.774;2023-07-20T07:41:32;7.22;;;4.95;;
13611;SDS011;6877;51.436;6.774;2023-07-20T07:44:04;11.55;;;5.38;;
13611;SDS011;6877;51.436;6.774;2023-07-20T07:46:31;11.98;;;4.95;;
13611;SDS011;6877;51.436;6.774;2023-07-20T07:48:58;9.73;;;4.97;;
13611;SDS011;6877;51.436;6.774;2023-07-20T07:51:24;9.00;;;5.43;;
13611;SDS011;6877;51.436;6.774;2023-07-20T07:53:58;7.43;;;5.20;;
13611;SDS011;6877;51.436;6.774;2023-07-20T07:56:24;7.82;;;4.18;;
13611;SDS011;6877;51.436;6.774;2023-07-20T07:58:51;9.10;;;4.47;;
13611;SDS011;6877;51.436;6.774;2023-07-20T08:01:18;4.68;;;3.85;;
13611;SDS011;6877;51.436;6.774;2023-07-20T08:03:52;8.25;;;5.60;;
13611;SDS011;6877;51.436;6.774;2023-07-20T08:06:19;11.82;;;4.57;;
13611;SDS011;6877;51.436;6.774;2023-07-20T08:08:46;10.55;;;5.15;;
13611;SDS011;6877;51.436;6.774;2023-07-20T08:11:12;10.15;;;5.50;;
13611;SDS011;6877;51.436;6.774;2023-07-20T08:13:44;9.63;;;5.97;;
13611;SDS011;6877;51.436;6.774;2023-07-20T08:16:10;10.40;;;4.78;;
13611;SDS011;6877;51.436;6.774;2023-07-20T08:18:42;13.38;;;8.32;;
13611;SDS011;6877;51.436;6.774;2023-07-20T08:21:15;23.00;;;10.23;;
13611;SDS011;6877;51.436;6.774;2023-07-20T08:23:46;17.33;;;10.98;;
13611;SDS011;6877;51.436;6.774;2023-07-20T08:26:13;16.80;;;7.38;;
13611;SDS011;6877;51.436;6.774;2023-07-20T08:28:39;7.43;;;4.63;;
13611;SDS011;6877;51.436;6.774;2023-07-20T08:31:11;7.60;;;4.80;;
13611;SDS011;6877;51.436;6.774;2023-07-20T08:33:42;9.20;;;3.28;;
13611;SDS011;6877;51.436;6.774;2023-07-20T08:36:09;7.53;;;3.63;;
13611;SDS011;6877;51.436;6.774;2023-07-20T08:38:40;2.45;;;1.98;;
13611;SDS011;6877;51.436;6.774;2023-07-20T08:41:12;3.00;;;1.67;;
13611;SDS011;6877;51.436;6.774;2023-07-20T08:43:38;3.08;;;2.42;;
13611;SDS011;6877;51.436;6.774;2023-07-20T08:46:08;5.20;;;3.10;;
13611;SDS011;6877;51.436;6.774;2023-07-20T08:48:43;4.85;;;2.72;;
13611;SDS011;6877;51.436;6.774;2023-07-20T08:51:10;5.15;;;3.03;;
13611;SDS011;6877;51.436;6.774;2023-07-20T08:53:39;2.85;;;2.10;;
13611;SDS011;6877;51.436;6.774;2023-07-20T08:56:10;2.00;;;1.77;;
13611;SDS011;6877;51.436;6.774;2023-07-20T08:58:43;3.38;;;2.20;;
13611;SDS011;6877;51.436;6.774;2023-07-20T09:01:15;13.65;;;1.30;;
13611;SDS011;6877;51.436;6.774;2023-07-20T09:03:44;4.63;;;1.38;;
13611;SDS011;6877;51.436;6.774;2023-07-20T09:06:16;4.45;;;1.45;;
13611;SDS011;6877;51.436;6.774;2023-07-20T09:08:43;2.35;;;1.50;;
13611;SDS011;6877;51.436;6.774;2023-07-20T09:11:14;4.22;;;1.55;;
13611;SDS011;6877;51.436;6.774;2023-07-20T09:13:46;2.40;;;1.92;;
13611;SDS011;6877;51.436;6.774;2023-07-20T09:16:13;2.25;;;1.60;;
13611;SDS011;6877;51.436;6.774;2023-07-20T09:18:41;2.53;;;1.38;;
13611;SDS011;6877;51.436;6.774;2023-07-20T09:21:07;2.85;;;1.27;;
13611;SDS011;6877;51.436;6.774;2023-07-20T09:23:39;2.63;;;1.23;;
13611;SDS011;6877;51.436;6.774;2023-07-20T09:26:14;4.68;;;1.30;;
13611;SDS011;6877;51.436;6.774;2023-07-20T09:28:42;1.85;;;1.20;;
13611;SDS011;6877;51.436;6.774;2023-07-20T09:31:16;3.47;;;1.15;;
13611;SDS011;6877;51.436;6.774;2023-07-20T09:33:45;0.60;;;0.60;;
13611;SDS011;6877;51.436;6.774;2023-07-20T09:36:13;0.85;;;0.77;;
13611;SDS011;6877;51.436;6.774;2023-07-20T09:38:45;2.30;;;0.70;;
13611;SDS011;6877;51.436;6.774;2023-07-20T09:41:16;1.35;;;0.98;;
13611;SDS011;6877;51.436;6.774;2023-07-20T09:43:52;2.20;;;0.80;;
13611;SDS011;6877;51.436;6.774;2023-07-20T09:46:24;1.30;;;0.77;;
13611;SDS011;6877;51.436;6.774;2023-07-20T09:48:53;2.42;;;1.15;;
13611;SDS011;6877;51.436;6.774;2023-07-20T09:51:23;3.65;;;1.60;;
13611;SDS011;6877;51.436;6.774;2023-07-20T09:53:52;2.55;;;1.50;;
13611;SDS011;6877;51.436;6.774;2023-07-20T09:56:21;2.60;;;1.00;;
13611;SDS011;6877;51.436;6.774;2023-07-20T09:58:49;3.25;;;1.48;;
13611;SDS011;6877;51.436;6.774;2023-07-20T10:01:18;6.13;;;1.85;;
13611;SDS011;6877;51.436;6.774;2023-07-20T10:03:53;3.45;;;2.35;;
13611;SDS011;6877;51.436;6.774;2023-07-20T10:06:23;1.60;;;1.20;;
13611;SDS011;6877;51.436;6.774;2023-07-20T10:08:56;2.63;;;1.10;;
13611;SDS011;6877;51.436;6.774;2023-07-20T10:11:29;1.98;;;1.35;;
13611;SDS011;6877;51.436;6.774;2023-07-20T10:14:03;0.93;;;0.50;;
13611;SDS011;6877;51.436;6.774;2023-07-20T10:16:35;1.33;;;0.80;;
13611;SDS011;6877;51.436;6.774;2023-07-20T10:19:07;1.42;;;0.50;;
13611;SDS011;6877;51.436;6.774;2023-07-20T10:21:40;1.35;;;0.85;;
13611;SDS011;6877;51.436;6.774;2023-07-20T10:24:13;1.85;;;1.13;;
13611;SDS011;6877;51.436;6.774;2023-07-20T10:26:41;1.38;;;0.95;;
13611;SDS011;6877;51.436;6.774;2023-07-20T10:29:07;2.72;;;1.52;;
13611;SDS011;6877;51.436;6.774;2023-07-20T10:31:34;1.30;;;1.20;;
13611;SDS011;6877;51.436;6.774;2023-07-20T10:34:08;2.22;;;1.33;;
13611;SDS011;6877;51.436;6.774;2023-07-20T10:36:35;2.05;;;1.30;;
13611;SDS011;6877;51.436;6.774;2023-07-20T10:39:50;4.97;;;1.40;;
13611;SDS011;6877;51.436;6.774;2023-07-20T10:42:09;4.90;;;1.38;;
13611;SDS011;6877;51.436;6.774;2023-07-20T10:44:41;3.42;;;1.02;;
13611;SDS011;6877;51.436;6.774;2023-07-20T10:47:11;2.50;;;1.42;;
13611;SDS011;6877;51.436;6.774;2023-07-20T10:49:57;2.03;;;1.15;;
13611;SDS011;6877;51.436;6.774;2023-07-20T10:52:25;2.80;;;1.40;;
13611;SDS011;6877;51.436;6.774;2023-07-20T10:54:52;3.92;;;1.60;;
13611;SDS011;6877;51.436;6.774;2023-07-20T10:57:24;1.92;;;1.10;;
13611;SDS011;6877;51.436;6.774;2023-07-20T11:00:08;0.90;;;0.80;;
13611;SDS011;6877;51.436;6.774;2023-07-20T11:08:05;0.90;;;0.60;;
13611;SDS011;6877;51.436;6.774;2023-07-20T11:11:20;2.83;;;0.70;;
13611;SDS011;6877;51.436;6.774;2023-07-20T11:14:22;2.35;;;0.80;;
13611;SDS011;6877;51.436;6.774;2023-07-20T11:16:52;5.68;;;1.10;;
13611;SDS011;6877;51.436;6.774;2023-07-20T11:19:25;3.63;;;0.85;;
13611;SDS011;6877;51.436;6.774;2023-07-20T11:21:53;1.67;;;1.00;;
13611;SDS011;6877;51.436;6.774;2023-07-20T11:24:21;2.13;;;0.88;;
13611;SDS011;6877;51.436;6.774;2023-07-20T11:26:53;3.60;;;1.08;;
13611;SDS011;6877;51.436;6.774;2023-07-20T11:29:20;1.70;;;1.10;;
13611;SDS011;6877;51.436;6.774;2023-07-20T11:31:48;1.92;;;0.88;;
13611;SDS011;6877;51.436;6.774;2023-07-20T11:34:19;2.47;;;0.60;;
13611;SDS011;6877;51.436;6.774;2023-07-20T11:36:48;1.27;;;1.17;;
13611;SDS011;6877;51.436;6.774;2023-07-20T11:39:21;2.65;;;0.90;;
13611;SDS011;6877;51.436;6.774;2023-07-20T11:41:49;3.40;;;0.70;;
13611;SDS011;6877;51.436;6.774;2023-07-20T11:44:21;1.40;;;0.90;;
13611;SDS011;6877;51.436;6.774;2023-07-20T11:47:07;2.40;;;1.23;;
13611;SDS011;6877;51.436;6.774;2023-07-20T11:49:35;1.80;;;0.80;;
13611;SDS011;6877;51.436;6.774;2023-07-20T11:52:10;2.40;;;1.00;;
13611;SDS011;6877;51.436;6.774;2023-07-20T11:54:44;0.85;;;0.80;;
13611;SDS011;6877;51.436;6.774;2023-07-20T11:57:16;1.40;;;0.90;;
13611;SDS011;6877;51.436;6.774;2023-07-20T11:59:55;3.25;;;0.75;;
13611;SDS011;6877;51.436;6.774;2023-07-20T12:02:28;2.05;;;1.00;;
13611;SDS011;6877;51.436;6.774;2023-07-20T12:04:54;2.72;;;1.08;;
13611;SDS011;6877;51.436;6.774;2023-07-20T12:07:22;1.02;;;0.90;;
13611;SDS011;6877;51.436;6.774;2023-07-20T12:12:34;1.50;;;0.98;;
13611;SDS011;6877;51.436;6.774;2023-07-20T12:17:51;1.58;;;1.10;;
13611;SDS011;6877;51.436;6.774;2023-07-20T12:20:34;1.10;;;1.00;;
13611;SDS011;6877;51.436;6.774;2023-07-20T12:25:44;1.67;;;0.90;;
13611;SDS011;6877;51.436;6.774;2023-07-20T12:28:12;2.40;;;1.20;;
13611;SDS011;6877;51.436;6.774;2023-07-20T12:30:43;3.97;;;1.27;;
13611;SDS011;6877;51.436;6.774;2023-07-20T12:33:10;4.15;;;0.90;;
13611;SDS011;6877;51.436;6.774;2023-07-20T12:35:38;1.20;;;1.00;;
13611;SDS011;6877;51.436;6.774;2023-07-20T12:38:09;1.13;;;1.00;;
13611;SDS011;6877;51.436;6.774;2023-07-20T12:40:36;1.10;;;0.80;;
13611;SDS011;6877;51.436;6.774;2023-07-20T12:43:07;0.93;;;0.90;;
13611;SDS011;6877;51.436;6.774;2023-07-20T12:45:34;0.93;;;0.80;;
13611;SDS011;6877;51.436;6.774;2023-07-20T12:48:00;2.45;;;1.20;;
13611;SDS011;6877;51.436;6.774;2023-07-20T12:50:27;1.20;;;0.82;;
13611;SDS011;6877;51.436;6.774;2023-07-20T12:52:58;1.13;;;0.95;;
13611;SDS011;6877;51.436;6.774;2023-07-20T12:55:25;0.90;;;0.80;;
13611;SDS011;6877;51.436;6.774;2023-07-20T12:57:56;2.78;;;0.98;;
13611;SDS011;6877;51.436;6.774;2023-07-20T13:00:28;8.60;;;1.35;;
13611;SDS011;6877;51.436;6.774;2023-07-20T13:02:54;1.33;;;0.90;;
13611;SDS011;6877;51.436;6.774;2023-07-20T13:05:26;3.78;;;1.20;;
13611;SDS011;6877;51.436;6.774;2023-07-20T13:07:52;1.15;;;1.00;;
13611;SDS011;6877;51.436;6.774;2023-07-20T13:10:24;1.77;;;0.93;;
13611;SDS011;6877;51.436;6.774;2023-07-20T13:12:55;2.20;;;0.93;;
13611;SDS011;6877;51.436;6.774;2023-07-20T13:15:24;3.33;;;1.10;;
13611;SDS011;6877;51.436;6.774;2023-07-20T13:17:57;1.05;;;0.93;;
13611;SDS011;6877;51.436;6.774;2023-07-20T13:20:28;3.08;;;0.90;;
13611;SDS011;6877;51.436;6.774;2023-07-20T13:22:56;1.10;;;0.75;;
13611;SDS011;6877;51.436;6.774;2023-07-20T13:25:27;2.60;;;1.33;;
13611;SDS011;6877;51.436;6.774;2023-07-20T13:27:54;2.15;;;1.17;;
13611;SDS011;6877;51.436;6.774;2023-07-20T13:30:26;1.65;;;1.05;;
13611;SDS011;6877;51.436;6.774;2023-07-20T13:32:52;1.17;;;1.08;;
13611;SDS011;6877;51.436;6.774;2023-07-20T13:35:19;0.75;;;0.73;;
13611;SDS011;6877;51.436;6.774;2023-07-20T13:37:45;2.05;;;1.13;;
13611;SDS011;6877;51.436;6.774;2023-07-20T13:40:12;3.35;;;0.80;;
13611;SDS011;6877;51.436;6.774;2023-07-20T13:42:39;1.45;;;1.08;;
13611;SDS011;6877;51.436;6.774;2023-07-20T13:45:09;2.13;;;1.17;;
13611;SDS011;6877;51.436;6.774;2023-07-20T13:47:35;1.73;;;1.10;;
13611;SDS011;6877;51.436;6.774;2023-07-20T13:50:02;0.80;;;0.80;;
13611;SDS011;6877;51.436;6.774;2023-07-20T13:52:28;1.23;;;1.10;;
13611;SDS011;6877;51.436;6.774;2023-07-20T13:54:55;1.85;;;1.00;;
13611;SDS011;6877;51.436;6.774;2023-07-20T13:57:21;1.40;;;1.30;;
13611;SDS011;6877;51.436;6.774;2023-07-20T13:59:48;1.42;;;1.15;;
13611;SDS011;6877;51.436;6.774;2023-07-20T14:02:15;0.88;;;0.82;;
13611;SDS011;6877;51.436;6.774;2023-07-20T14:04:41;0.80;;;0.80;;
13611;SDS011;6877;51.436;6.774;2023-07-20T14:07:08;3.60;;;1.02;;
13611;SDS011;6877;51.436;6.774;2023-07-20T14:09:34;2.40;;;1.10;;
13611;SDS011;6877;51.436;6.774;2023-07-20T14:12:01;1.15;;;0.90;;
13611;SDS011;6877;51.436;6.774;2023-07-20T14:14:27;3.03;;;1.00;;
13611;SDS011;6877;51.436;6.774;2023-07-20T14:16:59;2.63;;;1.10;;
13611;SDS011;6877;51.436;6.774;2023-07-20T14:19:25;1.17;;;1.02;;
13611;SDS011;6877;51.436;6.774;2023-07-20T14:21:52;5.30;;;1.25;;
13611;SDS011;6877;51.436;6.774;2023-07-20T14:24:18;2.00;;;0.90;;
13611;SDS011;6877;51.436;6.774;2023-07-20T14:26:45;1.17;;;1.00;;
13611;SDS011;6877;51.436;6.774;2023-07-20T14:29:19;2.35;;;0.90;;
13611;SDS011;6877;51.436;6.774;2023-07-20T14:31:46;2.33;;;0.98;;
13611;SDS011;6877;51.436;6.774;2023-07-20T14:34:16;1.73;;;0.93;;
13611;SDS011;6877;51.436;6.774;2023-07-20T14:36:45;1.20;;;1.10;;
13611;SDS011;6877;51.436;6.774;2023-07-20T14:39:11;1.05;;;0.95;;
13611;SDS011;6877;51.436;6.774;2023-07-20T14:41:38;0.75;;;0.73;;
13611;SDS011;6877;51.436;6.774;2023-07-20T14:44:09;1.13;;;1.02;;
13611;SDS011;6877;51.436;6.774;2023-07-20T14:46:36;1.02;;;0.95;;
13611;SDS011;6877;51.436;6.774;2023-07-20T14:49:03;1.02;;;0.95;;
13611;SDS011;6877;51.436;6.774;2023-07-20T14:51:29;1.42;;;0.95;;
13611;SDS011;6877;51.436;6.774;2023-07-20T14:53:59;1.27;;;1.15;;
13611;SDS011;6877;51.436;6.774;2023-07-20T14:56:27;3.78;;;1.60;;
13611;SDS011;6877;51.436;6.774;2023-07-20T14:58:53;1.20;;;1.10;;
13611;SDS011;6877;51.436;6.774;2023-07-20T15:01:25;1.88;;;0.90;;
13611;SDS011;6877;51.436;6.774;2023-07-20T15:03:51;1.90;;;1.30;;
13611;SDS011;6877;51.436;6.774;2023-07-20T15:06:19;2.00;;;1.25;;
13611;SDS011;6877;51.436;6.774;2023-07-20T15:08:46;4.05;;;1.58;;
13611;SDS011;6877;51.436;6.774;2023-07-20T15:11:12;4.82;;;1.17;;
13611;SDS011;6877;51.436;6.774;2023-07-20T15:13:39;2.55;;;1.77;;
13611;SDS011;6877;51.436;6.774;2023-07-20T15:16:08;1.52;;;1.23;;
13611;SDS011;6877;51.436;6.774;2023-07-20T15:18:36;1.40;;;1.00;;
13611;SDS011;6877;51.436;6.774;2023-07-20T15:21:02;4.82;;;0.93;;
13611;SDS011;6877;51.436;6.774;2023-07-20T15:23:28;2.90;;;1.30;;
13611;SDS011;6877;51.436;6.774;2023-07-20T15:26:00;5.03;;;1.00;;
13611;SDS011;6877;51.436;6.774;2023-07-20T15:28:27;1.35;;;1.25;;
13611;SDS011;6877;51.436;6.774;2023-07-20T15:30:59;0.77;;;0.77;;
13611;SDS011;6877;51.436;6.774;2023-07-20T15:33:27;1.20;;;1.10;;
13611;SDS011;6877;51.436;6.774;2023-07-20T15:35:58;2.67;;;1.33;;